Time;durP1;ratioP1;P1;durP2;ratioP2;P2;SDS_P1;SDS_P2;PMS_P1;PMS_P2;Temp;Humidity;BMP_temperature;BMP_pressure;BME280_temperature;BME280_humidity;BME280_pressure;Samples;Min_cycle;Max_cycle;Signal;HPM_P1;HPM_P2
2022/03/10 00:00:19;;;;;;;11.15;6.28;;;;;;;;;;5053742;28;20031;-69
2022/03/10 00:02:45;;;;;;;12.82;6.93;;;;;;;;;;5053420;28;20021;-68
2022/03/10 00:05:13;;;;;;;10.52;6.35;;;;;;;;;;5053620;28;20021;-65
2022/03/10 00:07:39;;;;;;;11.13;6.53;;;;;;;;;;5053408;28;20021;-66
2022/03/10 00:10:06;;;;;;;11.15;6.07;;;;;;;;;;5053665;28;20037;-65
2022/03/10 00:12:32;;;;;;;10.55;6.60;;;;;;;;;;5053562;28;20025;-63
2022/03/10 00:14:58;;;;;;;11.15;6.47;;;;;;;;;;5053412;28;20021;-66
2022/03/10 00:17:25;;;;;;;13.30;6.95;;;;;;;;;;5053286;28;20021;-65
2022/03/10 00:19:51;;;;;;;12.05;6.65;;;;;;;;;;5053326;28;20017;-66
2022/03/10 00:22:17;;;;;;;12.38;7.18;;;;;;;;;;5052610;28;20022;-73
2022/03/10 00:24:43;;;;;;;10.73;6.60;;;;;;;;;;5051753;28;20028;-63
2022/03/10 00:27:09;;;;;;;14.52;6.30;;;;;;;;;;5049446;28;20032;-62
2022/03/10 00:29:35;;;;;;;12.60;6.63;;;;;;;;;;5043965;28;20473;-74
2022/03/10 00:32:01;;;;;;;13.98;6.63;;;;;;;;;;5032882;28;20037;-72
2022/03/10 00:34:28;;;;;;;9.90;6.22;;;;;;;;;;5045595;28;20541;-71
2022/03/10 00:55:21;;;;;;;11.55;5.93;;;;;;;;;;5023920;28;20048;-64
2022/03/10 00:57:48;;;;;;;13.70;6.30;;;;;;;;;;5032808;28;20037;-62
2022/03/10 01:00:15;;;;;;;13.88;6.40;;;;;;;;;;5032855;28;20030;-64
2022/03/10 01:02:41;;;;;;;9.88;6.38;;;;;;;;;;5032952;28;20519;-62
2022/03/10 01:05:08;;;;;;;14.25;7.13;;;;;;;;;;5032671;28;20026;-74
2022/03/10 01:07:34;;;;;;;11.43;6.60;;;;;;;;;;5032594;28;20013;-69
2022/03/10 01:10:00;;;;;;;12.27;6.55;;;;;;;;;;5032623;28;20034;-64
2022/03/10 01:12:27;;;;;;;10.15;5.75;;;;;;;;;;5032975;28;20419;-62
2022/03/10 01:14:54;;;;;;;11.52;6.45;;;;;;;;;;5032749;28;20032;-63
2022/03/10 01:17:20;;;;;;;14.43;6.18;;;;;;;;;;5032616;28;20465;-69
2022/03/10 01:19:46;;;;;;;15.65;7.05;;;;;;;;;;5032490;28;20035;-62
2022/03/10 01:22:12;;;;;;;9.82;5.95;;;;;;;;;;5032561;28;20032;-73
2022/03/10 01:24:39;;;;;;;12.63;6.65;;;;;;;;;;5031169;28;20068;-61
2022/03/10 01:27:06;;;;;;;10.90;7.07;;;;;;;;;;5032695;28;20025;-61
2022/03/10 01:29:32;;;;;;;11.98;6.50;;;;;;;;;;5032594;28;20022;-73
2022/03/10 01:31:58;;;;;;;11.57;6.13;;;;;;;;;;5032128;28;20033;-71
2022/03/10 01:34:24;;;;;;;11.65;6.25;;;;;;;;;;5031947;28;20037;-68
2022/03/10 01:36:50;;;;;;;10.60;6.18;;;;;;;;;;5032013;28;20491;-71
2022/03/10 01:39:16;;;;;;;10.13;5.50;;;;;;;;;;5032113;28;20107;-74
2022/03/10 01:41:43;;;;;;;12.27;6.55;;;;;;;;;;5032286;28;20033;-65
2022/03/10 01:44:10;;;;;;;10.38;6.28;;;;;;;;;;5032598;28;20071;-68
2022/03/10 01:46:36;;;;;;;11.80;6.80;;;;;;;;;;5032239;28;20431;-61
2022/03/10 01:49:03;;;;;;;11.40;6.10;;;;;;;;;;5032248;28;20026;-72
2022/03/10 01:51:29;;;;;;;14.15;6.45;;;;;;;;;;5032223;28;20433;-68
2022/03/10 01:53:55;;;;;;;10.48;6.20;;;;;;;;;;5032063;28;20501;-66
2022/03/10 01:56:22;;;;;;;12.73;5.97;;;;;;;;;;5032107;28;20436;-67
2022/03/10 01:58:49;;;;;;;12.13;6.75;;;;;;;;;;5031823;28;20021;-68
2022/03/10 02:01:16;;;;;;;17.27;6.30;;;;;;;;;;5030806;28;20120;-70
2022/03/10 02:03:42;;;;;;;11.15;6.00;;;;;;;;;;5032031;28;20022;-62
2022/03/10 02:06:09;;;;;;;11.40;6.30;;;;;;;;;;5032029;28;20083;-74
2022/03/10 02:11:19;;;;;;;9.90;5.50;;;;;;;;;;5055186;28;20128;-64
2022/03/10 02:13:46;;;;;;;12.23;5.85;;;;;;;;;;5056188;28;20067;-70
2022/03/10 02:19:00;;;;;;;9.90;6.10;;;;;;;;;;5056268;28;20610;-72
2022/03/10 02:21:26;;;;;;;12.13;6.88;;;;;;;;;;5055933;28;20052;-64
2022/03/10 02:23:53;;;;;;;12.80;6.35;;;;;;;;;;5055789;28;20028;-62
2022/03/10 02:26:19;;;;;;;10.70;6.22;;;;;;;;;;5055542;28;20021;-62
2022/03/10 02:28:46;;;;;;;11.82;7.05;;;;;;;;;;5055583;28;20482;-63
2022/03/10 02:31:12;;;;;;;11.05;6.47;;;;;;;;;;5055552;28;20037;-73
2022/03/10 02:33:38;;;;;;;10.02;6.32;;;;;;;;;;5035645;28;20476;-67
2022/03/10 02:36:05;;;;;;;11.27;6.38;;;;;;;;;;5035684;28;20539;-70
2022/03/10 02:38:31;;;;;;;12.20;6.50;;;;;;;;;;5034417;28;20030;-61
2022/03/10 02:40:58;;;;;;;10.43;5.53;;;;;;;;;;5035452;28;20151;-65
2022/03/10 02:43:24;;;;;;;10.48;5.40;;;;;;;;;;5035519;28;20022;-75
2022/03/10 02:45:51;;;;;;;9.63;5.40;;;;;;;;;;5035217;28;20021;-68
2022/03/10 02:48:17;;;;;;;9.75;5.55;;;;;;;;;;5035412;28;20092;-61
2022/03/10 02:50:44;;;;;;;12.27;6.93;;;;;;;;;;5035116;28;20034;-63
2022/03/10 02:53:11;;;;;;;10.65;6.32;;;;;;;;;;5035371;28;20028;-66
2022/03/10 02:55:37;;;;;;;13.35;7.07;;;;;;;;;;5035205;28;20117;-73
2022/03/10 02:58:03;;;;;;;13.15;6.72;;;;;;;;;;5035411;28;20104;-65
2022/03/10 03:00:29;;;;;;;11.80;6.10;;;;;;;;;;5035270;28;20021;-64
2022/03/10 03:02:56;;;;;;;12.23;6.32;;;;;;;;;;5034982;28;20040;-66
2022/03/10 03:05:22;;;;;;;11.65;6.55;;;;;;;;;;5034995;28;20476;-70
2022/03/10 03:07:48;;;;;;;11.05;6.22;;;;;;;;;;5034901;28;20026;-70
2022/03/10 03:10:15;;;;;;;11.38;6.20;;;;;;;;;;5034839;28;20461;-73
2022/03/10 03:12:45;;;;;;;10.32;5.97;;;;;;;;;;5050226;28;20078;-68
2022/03/10 03:15:11;;;;;;;11.68;6.60;;;;;;;;;;5034894;28;20101;-71
2022/03/10 03:17:37;;;;;;;12.32;7.28;;;;;;;;;;5050241;28;20388;-71
2022/03/10 03:20:04;;;;;;;11.38;6.38;;;;;;;;;;5034978;28;20068;-67
2022/03/10 03:22:31;;;;;;;12.90;7.28;;;;;;;;;;5048504;28;20021;-62
2022/03/10 03:24:57;;;;;;;16.00;6.60;;;;;;;;;;5034515;28;20036;-71
2022/03/10 03:27:23;;;;;;;12.55;6.13;;;;;;;;;;5034657;28;20025;-66
2022/03/10 03:29:49;;;;;;;10.05;6.28;;;;;;;;;;5034495;28;20076;-62
2022/03/10 03:32:15;;;;;;;10.90;6.38;;;;;;;;;;5034382;28;20071;-68
2022/03/10 03:34:41;;;;;;;11.63;6.47;;;;;;;;;;5034633;28;20079;-66
2022/03/10 03:37:08;;;;;;;12.48;6.93;;;;;;;;;;5034350;28;20099;-68
2022/03/10 03:39:34;;;;;;;10.98;5.70;;;;;;;;;;5034442;28;20020;-64
2022/03/10 03:42:00;;;;;;;11.15;6.78;;;;;;;;;;5034331;28;20097;-64
2022/03/10 03:44:26;;;;;;;12.20;6.75;;;;;;;;;;5034189;28;20021;-70
2022/03/10 03:46:52;;;;;;;10.88;6.38;;;;;;;;;;5034162;28;20021;-67
2022/03/10 03:49:18;;;;;;;10.98;6.63;;;;;;;;;;5032901;28;20105;-61
2022/03/10 03:51:44;;;;;;;12.27;7.05;;;;;;;;;;5032743;28;20065;-67
2022/03/10 03:54:10;;;;;;;11.35;6.38;;;;;;;;;;5032768;28;20041;-61
2022/03/10 03:56:37;;;;;;;10.77;6.40;;;;;;;;;;5033932;28;20028;-64
2022/03/10 03:59:03;;;;;;;11.98;6.72;;;;;;;;;;5034225;28;20120;-64
2022/03/10 04:01:29;;;;;;;12.27;6.97;;;;;;;;;;5034324;28;20022;-61
2022/03/10 04:03:56;;;;;;;9.55;6.32;;;;;;;;;;5034204;28;20385;-61
2022/03/10 04:06:22;;;;;;;11.88;6.45;;;;;;;;;;5033767;28;20028;-61
2022/03/10 04:08:48;;;;;;;11.77;6.25;;;;;;;;;;5033596;28;20021;-64
2022/03/10 04:11:15;;;;;;;10.15;6.05;;;;;;;;;;5033664;28;20038;-67
2022/03/10 04:13:41;;;;;;;13.13;7.47;;;;;;;;;;5033723;28;20028;-62
2022/03/10 04:16:07;;;;;;;11.05;6.85;;;;;;;;;;5033711;28;20075;-66
2022/03/10 04:18:33;;;;;;;10.23;6.28;;;;;;;;;;5033406;28;20047;-72
2022/03/10 04:20:59;;;;;;;14.63;7.63;;;;;;;;;;5033704;28;20025;-63
2022/03/10 04:23:29;;;;;;;12.10;7.50;;;;;;;;;;5033599;28;20096;-62
2022/03/10 04:25:55;;;;;;;12.30;7.50;;;;;;;;;;5033308;28;20021;-61
2022/03/10 04:28:22;;;;;;;12.65;6.97;;;;;;;;;;5033461;28;20028;-66
2022/03/10 04:30:48;;;;;;;13.07;7.80;;;;;;;;;;5032039;28;20068;-62
2022/03/10 04:33:15;;;;;;;14.30;7.25;;;;;;;;;;5032981;28;20025;-65
2022/03/10 04:35:41;;;;;;;12.18;7.55;;;;;;;;;;5033426;28;20040;-65
2022/03/10 04:38:08;;;;;;;10.68;6.65;;;;;;;;;;5033298;28;20021;-68
2022/03/10 04:40:34;;;;;;;12.88;7.63;;;;;;;;;;5033246;28;20357;-69
2022/03/10 04:43:00;;;;;;;11.75;7.50;;;;;;;;;;5032973;28;20021;-68
2022/03/10 04:45:27;;;;;;;12.45;7.88;;;;;;;;;;5032687;28;20115;-61
2022/03/10 04:47:53;;;;;;;11.43;7.35;;;;;;;;;;5032844;28;20025;-61
2022/03/10 04:50:19;;;;;;;10.43;6.53;;;;;;;;;;5032831;28;20103;-61
2022/03/10 04:52:45;;;;;;;11.70;7.18;;;;;;;;;;5032783;28;20465;-60
2022/03/10 04:55:12;;;;;;;10.93;7.10;;;;;;;;;;5033507;28;20541;-70
2022/03/10 04:57:39;;;;;;;10.13;6.80;;;;;;;;;;5048383;28;20022;-61
2022/03/10 05:00:08;;;;;;;11.80;7.22;;;;;;;;;;5032770;28;20954;-62
2022/03/10 05:02:35;;;;;;;11.80;7.35;;;;;;;;;;5032654;28;20464;-61
2022/03/10 05:05:02;;;;;;;11.10;6.97;;;;;;;;;;5032548;28;20017;-66
2022/03/10 05:07:28;;;;;;;11.38;6.93;;;;;;;;;;5032626;28;20025;-68
2022/03/10 05:09:54;;;;;;;9.48;5.82;;;;;;;;;;5032758;28;20026;-61
2022/03/10 05:12:20;;;;;;;9.95;5.22;;;;;;;;;;5046968;28;20079;-64
2022/03/10 05:14:46;;;;;;;7.93;5.25;;;;;;;;;;5032196;28;20013;-62
2022/03/10 05:17:12;;;;;;;9.50;5.55;;;;;;;;;;5032202;28;20549;-62
2022/03/10 05:19:38;;;;;;;9.32;5.65;;;;;;;;;;5032705;28;20520;-62
2022/03/10 05:22:04;;;;;;;9.15;5.25;;;;;;;;;;5032472;28;20026;-68
2022/03/10 05:24:30;;;;;;;9.40;4.72;;;;;;;;;;5032528;28;20384;-61
2022/03/10 05:27:00;;;;;;;8.60;4.82;;;;;;;;;;5032413;28;20084;-69
2022/03/10 05:29:26;;;;;;;6.78;4.43;;;;;;;;;;5032506;28;20049;-61
2022/03/10 05:31:52;;;;;;;6.88;4.20;;;;;;;;;;5037349;28;20031;-61
2022/03/10 05:34:18;;;;;;;8.02;4.78;;;;;;;;;;5052251;28;20021;-62
2022/03/10 05:36:44;;;;;;;7.75;4.90;;;;;;;;;;5052027;28;20032;-62
2022/03/10 05:39:11;;;;;;;7.18;4.30;;;;;;;;;;5052176;28;20109;-62
2022/03/10 05:41:37;;;;;;;7.47;4.53;;;;;;;;;;5051927;28;20021;-69
2022/03/10 05:44:03;;;;;;;6.88;4.32;;;;;;;;;;5051538;28;20079;-63
2022/03/10 05:46:29;;;;;;;7.28;4.53;;;;;;;;;;5051732;28;20044;-62
2022/03/10 05:48:55;;;;;;;6.90;3.97;;;;;;;;;;5052083;28;20036;-61
2022/03/10 05:51:22;;;;;;;7.65;3.97;;;;;;;;;;5051886;28;20040;-61
2022/03/10 05:53:51;;;;;;;8.27;4.53;;;;;;;;;;5051963;28;20075;-61
2022/03/10 05:56:17;;;;;;;7.68;3.90;;;;;;;;;;5050461;28;20499;-62
2022/03/10 05:58:44;;;;;;;7.32;4.18;;;;;;;;;;5051784;28;20025;-68
2022/03/10 06:01:11;;;;;;;8.93;4.25;;;;;;;;;;5051816;28;20507;-69
2022/03/10 06:03:37;;;;;;;6.35;3.90;;;;;;;;;;5051944;28;20032;-69
2022/03/10 06:06:03;;;;;;;8.27;4.32;;;;;;;;;;5051767;28;20123;-68
2022/03/10 06:08:29;;;;;;;7.20;4.35;;;;;;;;;;5051906;28;20032;-65
2022/03/10 06:10:56;;;;;;;6.63;4.25;;;;;;;;;;5052324;28;20098;-63
2022/03/10 06:13:22;;;;;;;8.02;4.00;;;;;;;;;;5051103;28;20045;-61
2022/03/10 06:15:48;;;;;;;7.25;4.28;;;;;;;;;;5051043;28;20032;-62
2022/03/10 06:18:14;;;;;;;6.95;3.75;;;;;;;;;;5051589;28;20036;-66
2022/03/10 06:20:40;;;;;;;9.88;4.25;;;;;;;;;;5051574;28;20074;-71
2022/03/10 06:23:06;;;;;;;7.22;3.70;;;;;;;;;;5051710;28;20056;-66
2022/03/10 06:25:32;;;;;;;7.28;3.90;;;;;;;;;;5051780;28;20025;-67
2022/03/10 06:27:58;;;;;;;6.90;3.60;;;;;;;;;;5050261;28;20071;-70
2022/03/10 06:30:24;;;;;;;6.78;3.65;;;;;;;;;;5051494;28;20033;-71
2022/03/10 06:32:50;;;;;;;7.38;3.85;;;;;;;;;;5037788;28;20033;-72
2022/03/10 06:35:16;;;;;;;7.28;3.58;;;;;;;;;;5031429;28;20958;-71
2022/03/10 06:37:42;;;;;;;6.15;3.58;;;;;;;;;;5031751;28;20021;-71
2022/03/10 06:40:09;;;;;;;6.93;3.75;;;;;;;;;;5031588;28;20029;-62
2022/03/10 06:42:35;;;;;;;6.78;3.92;;;;;;;;;;5031307;28;20027;-62
2022/03/10 06:45:01;;;;;;;7.38;3.67;;;;;;;;;;5029905;28;20487;-61
2022/03/10 06:47:27;;;;;;;7.05;4.00;;;;;;;;;;5041148;28;20044;-61
2022/03/10 06:49:53;;;;;;;9.93;3.40;;;;;;;;;;5047051;28;20079;-61
2022/03/10 06:52:20;;;;;;;7.05;3.85;;;;;;;;;;5033093;28;20018;-62
2022/03/10 06:54:46;;;;;;;6.78;3.53;;;;;;;;;;5030889;28;20132;-61
2022/03/10 06:57:13;;;;;;;9.30;3.95;;;;;;;;;;5046918;28;20028;-61
2022/03/10 06:59:39;;;;;;;6.85;3.55;;;;;;;;;;5070480;28;20384;-61
2022/03/10 07:02:05;;;;;;;9.35;4.05;;;;;;;;;;5054392;28;20036;-67
2022/03/10 07:04:31;;;;;;;7.68;4.28;;;;;;;;;;5054652;28;20128;-61
2022/03/10 07:06:57;;;;;;;6.95;4.07;;;;;;;;;;5054792;28;20447;-71
2022/03/10 07:09:23;;;;;;;8.88;4.07;;;;;;;;;;5054735;28;20032;-61
2022/03/10 07:11:49;;;;;;;8.00;3.50;;;;;;;;;;5054395;28;20033;-64
2022/03/10 07:14:16;;;;;;;7.13;3.85;;;;;;;;;;5054539;28;20024;-64
2022/03/10 07:16:43;;;;;;;6.80;3.13;;;;;;;;;;5054588;28;20025;-68
2022/03/10 07:19:10;;;;;;;6.78;3.20;;;;;;;;;;5054314;28;20147;-64
2022/03/10 07:21:40;;;;;;;6.95;3.33;;;;;;;;;;5054433;28;20031;-71
2022/03/10 07:24:06;;;;;;;11.35;3.53;;;;;;;;;;5052991;28;20025;-68
2022/03/10 07:26:32;;;;;;;6.68;3.88;;;;;;;;;;5054298;28;20079;-69
2022/03/10 07:28:59;;;;;;;6.68;3.45;;;;;;;;;;5054257;28;20091;-72
2022/03/10 07:31:28;;;;;;;8.05;3.00;;;;;;;;;;5053427;28;20037;-68
2022/03/10 07:33:55;;;;;;;7.38;3.80;;;;;;;;;;5053992;28;20032;-71
2022/03/10 07:36:21;;;;;;;6.22;3.40;;;;;;;;;;5053633;28;20039;-67
2022/03/10 07:38:47;;;;;;;7.32;3.22;;;;;;;;;;5052651;28;20041;-65
2022/03/10 07:41:13;;;;;;;6.45;3.60;;;;;;;;;;5054053;28;20027;-62
2022/03/10 07:43:39;;;;;;;6.75;3.40;;;;;;;;;;5054440;28;20089;-66
2022/03/10 07:46:06;;;;;;;7.57;3.80;;;;;;;;;;5054369;28;20032;-60
2022/03/10 07:48:32;;;;;;;7.15;3.33;;;;;;;;;;5052949;28;20377;-61
2022/03/10 07:50:58;;;;;;;8.02;3.53;;;;;;;;;;5053998;28;20044;-63
2022/03/10 07:53:24;;;;;;;6.00;3.10;;;;;;;;;;5053838;28;20028;-61
2022/03/10 07:55:54;;;;;;;5.88;3.25;;;;;;;;;;5053655;28;20037;-60
2022/03/10 07:58:23;;;;;;;6.63;3.20;;;;;;;;;;5053619;28;20062;-60
2022/03/10 08:00:49;;;;;;;5.85;3.42;;;;;;;;;;5054056;28;20503;-61
2022/03/10 08:03:15;;;;;;;9.68;3.78;;;;;;;;;;5053667;28;20447;-60
2022/03/10 08:05:41;;;;;;;6.43;3.58;;;;;;;;;;5053817;28;20025;-62
2022/03/10 08:08:07;;;;;;;6.95;4.30;;;;;;;;;;5053008;28;20071;-61
2022/03/10 08:10:33;;;;;;;7.20;3.80;;;;;;;;;;5053601;28;20033;-61
2022/03/10 08:12:59;;;;;;;7.57;3.45;;;;;;;;;;5053816;28;20536;-60
2022/03/10 08:15:26;;;;;;;7.18;3.33;;;;;;;;;;5053888;28;20112;-60
2022/03/10 08:17:52;;;;;;;7.22;3.50;;;;;;;;;;5053647;28;20018;-62
2022/03/10 08:20:18;;;;;;;7.07;3.60;;;;;;;;;;5053629;28;20020;-61
2022/03/10 08:22:44;;;;;;;6.13;2.83;;;;;;;;;;5053492;28;20025;-62
2022/03/10 08:25:10;;;;;;;5.32;3.10;;;;;;;;;;5053515;28;20032;-64
2022/03/10 08:27:36;;;;;;;6.68;3.60;;;;;;;;;;5052227;28;20032;-63
2022/03/10 08:30:03;;;;;;;6.80;3.20;;;;;;;;;;5053509;28;20032;-62
2022/03/10 08:32:30;;;;;;;8.70;3.80;;;;;;;;;;5042897;28;20484;-60
2022/03/10 08:34:56;;;;;;;5.35;3.03;;;;;;;;;;5031845;28;20179;-62
2022/03/10 08:37:23;;;;;;;6.57;3.10;;;;;;;;;;5036389;28;20025;-69
2022/03/10 08:39:49;;;;;;;5.80;3.10;;;;;;;;;;5052184;28;20016;-60
2022/03/10 08:42:15;;;;;;;7.82;3.55;;;;;;;;;;5052221;28;20100;-62
2022/03/10 08:44:41;;;;;;;6.25;3.55;;;;;;;;;;5052881;28;20021;-64
2022/03/10 08:47:07;;;;;;;6.07;3.40;;;;;;;;;;5053113;28;20179;-61
2022/03/10 08:49:33;;;;;;;8.00;3.25;;;;;;;;;;5053017;28;20540;-61
2022/03/10 08:51:59;;;;;;;6.45;3.15;;;;;;;;;;5051694;28;20043;-63
2022/03/10 08:54:25;;;;;;;6.13;3.20;;;;;;;;;;5052845;28;20041;-67
2022/03/10 08:56:51;;;;;;;7.28;3.38;;;;;;;;;;5052845;28;20028;-68
2022/03/10 08:59:18;;;;;;;6.13;3.10;;;;;;;;;;5053191;28;20020;-62
2022/03/10 09:01:44;;;;;;;8.90;3.63;;;;;;;;;;5052907;28;20032;-64
2022/03/10 09:04:10;;;;;;;4.55;2.53;;;;;;;;;;5052729;28;20029;-68
2022/03/10 09:06:36;;;;;;;6.90;3.38;;;;;;;;;;5052271;28;20032;-66
2022/03/10 09:09:03;;;;;;;8.02;3.33;;;;;;;;;;5052620;28;20104;-67
2022/03/10 09:11:29;;;;;;;8.88;3.63;;;;;;;;;;5052413;28;20032;-68
2022/03/10 09:13:55;;;;;;;6.70;3.50;;;;;;;;;;5052569;28;20025;-61
2022/03/10 09:16:22;;;;;;;5.43;2.65;;;;;;;;;;5052408;28;20078;-61
2022/03/10 09:18:48;;;;;;;6.03;3.35;;;;;;;;;;5051242;28;20112;-61
2022/03/10 09:21:15;;;;;;;4.90;2.58;;;;;;;;;;5051122;28;20025;-64
2022/03/10 09:23:41;;;;;;;4.70;2.50;;;;;;;;;;5034627;28;20492;-71
2022/03/10 09:26:07;;;;;;;4.82;2.60;;;;;;;;;;5031294;28;20065;-70
2022/03/10 09:28:34;;;;;;;6.00;2.58;;;;;;;;;;5047196;28;20032;-65
2022/03/10 09:31:00;;;;;;;9.32;3.25;;;;;;;;;;5051117;28;20029;-64
2022/03/10 09:33:26;;;;;;;5.30;2.35;;;;;;;;;;5050242;28;20082;-63
2022/03/10 09:35:52;;;;;;;6.82;2.85;;;;;;;;;;5050991;28;20021;-71
2022/03/10 09:38:19;;;;;;;5.47;2.60;;;;;;;;;;5050984;28;20021;-71
2022/03/10 09:40:47;;;;;;;5.35;2.70;;;;;;;;;;5050748;28;20025;-70
2022/03/10 09:43:13;;;;;;;5.03;2.25;;;;;;;;;;5051144;28;20488;-71
2022/03/10 09:45:39;;;;;;;6.35;2.85;;;;;;;;;;5050903;28;20040;-73
2022/03/10 09:48:06;;;;;;;5.85;2.97;;;;;;;;;;5050994;28;20032;-65
2022/03/10 09:50:32;;;;;;;6.03;2.47;;;;;;;;;;5050944;28;20090;-69
2022/03/10 09:52:58;;;;;;;5.22;2.55;;;;;;;;;;5050899;28;20036;-72
2022/03/10 09:55:24;;;;;;;5.43;2.60;;;;;;;;;;5050128;28;20114;-66
2022/03/10 09:57:50;;;;;;;3.78;2.03;;;;;;;;;;5050684;28;20021;-71
2022/03/10 10:00:17;;;;;;;33.28;4.20;;;;;;;;;;5050947;28;20032;-68
2022/03/10 10:02:44;;;;;;;7.15;2.95;;;;;;;;;;5066067;28;20469;-76
2022/03/10 10:05:26;;;;;;;7.93;2.80;;;;;;;;;;5050651;28;20032;-61
2022/03/10 10:08:02;;;;;;;11.75;3.35;;;;;;;;;;5051177;28;20100;-71
2022/03/10 10:10:29;;;;;;;8.70;2.50;;;;;;;;;;5050776;28;20041;-74
2022/03/10 10:12:55;;;;;;;8.05;3.08;;;;;;;;;;5050763;28;20107;-65
2022/03/10 10:15:21;;;;;;;7.25;2.38;;;;;;;;;;5050752;28;20021;-62
2022/03/10 10:17:55;;;;;;;5.00;2.50;;;;;;;;;;5051147;28;20025;-66
2022/03/10 10:20:21;;;;;;;6.15;2.92;;;;;;;;;;5044288;28;20029;-60
2022/03/10 10:22:51;;;;;;;5.47;2.80;;;;;;;;;;5045622;28;20033;-59
2022/03/10 10:25:21;;;;;;;10.02;2.10;;;;;;;;;;5048428;28;20017;-59
2022/03/10 10:27:47;;;;;;;7.75;2.75;;;;;;;;;;5029047;28;20492;-64
2022/03/10 10:30:13;;;;;;;8.98;2.60;;;;;;;;;;5030531;28;20022;-63
2022/03/10 10:32:43;;;;;;;5.72;2.53;;;;;;;;;;5045811;28;20144;-63
2022/03/10 10:35:10;;;;;;;7.65;2.60;;;;;;;;;;5054220;28;20028;-60
2022/03/10 10:37:37;;;;;;;5.75;2.80;;;;;;;;;;5053143;28;20009;-75
2022/03/10 10:40:07;;;;;;;7.05;2.50;;;;;;;;;;5056595;28;20102;-70
2022/03/10 10:42:35;;;;;;;5.15;2.40;;;;;;;;;;5055713;28;20587;-69
2022/03/10 10:45:02;;;;;;;5.05;2.58;;;;;;;;;;5055681;28;20467;-68
2022/03/10 10:47:29;;;;;;;7.38;2.60;;;;;;;;;;5055992;28;20116;-71
2022/03/10 10:49:59;;;;;;;7.60;2.30;;;;;;;;;;5055914;28;20138;-71
2022/03/10 10:52:25;;;;;;;5.75;2.53;;;;;;;;;;5055942;28;20048;-71
2022/03/10 10:55:05;;;;;;;7.07;2.08;;;;;;;;;;5057838;28;20045;-65
2022/03/10 10:57:34;;;;;;;6.53;2.63;;;;;;;;;;5055655;28;20024;-74
2022/03/10 11:00:13;;;;;;;8.10;2.85;;;;;;;;;;5054996;28;20029;-75
2022/03/10 11:02:44;;;;;;;5.82;2.80;;;;;;;;;;5055389;28;20021;-74
2022/03/10 11:05:12;;;;;;;7.75;2.88;;;;;;;;;;5054477;28;20025;-72
2022/03/10 11:07:40;;;;;;;39.33;14.02;;;;;;;;;;5054799;28;20396;-74
2022/03/10 11:10:07;;;;;;;25.95;7.88;;;;;;;;;;5059500;28;20029;-66
2022/03/10 11:12:41;;;;;;;27.50;7.43;;;;;;;;;;5054752;28;20103;-69
2022/03/10 11:15:08;;;;;;;18.90;6.47;;;;;;;;;;5053589;28;20028;-74
2022/03/10 11:17:35;;;;;;;24.83;5.72;;;;;;;;;;5054885;28;20028;-72
2022/03/10 11:20:03;;;;;;;18.30;6.43;;;;;;;;;;5053820;28;20052;-75
2022/03/10 11:22:48;;;;;;;16.15;5.03;;;;;;;;;;5055181;28;20049;-76
2022/03/10 11:25:34;;;;;;;11.93;5.15;;;;;;;;;;5055356;28;20029;-75
2022/03/10 11:28:03;;;;;;;17.45;4.85;;;;;;;;;;5057399;28;20496;-67
2022/03/10 11:30:30;;;;;;;10.77;4.60;;;;;;;;;;5054250;28;20025;-75
2022/03/10 11:33:04;;;;;;;14.23;4.80;;;;;;;;;;5052006;28;20028;-65
2022/03/10 11:35:34;;;;;;;13.07;5.38;;;;;;;;;;5050963;28;20025;-70
2022/03/10 11:38:00;;;;;;;13.77;4.53;;;;;;;;;;5054413;28;20051;-66
2022/03/10 11:40:39;;;;;;;14.05;4.65;;;;;;;;;;5052812;28;20021;-70
2022/03/10 11:43:06;;;;;;;14.25;4.55;;;;;;;;;;5055561;28;20040;-71
2022/03/10 11:45:32;;;;;;;12.60;4.35;;;;;;;;;;5063156;28;20013;-74
2022/03/10 11:48:17;;;;;;;11.60;4.20;;;;;;;;;;5052834;28;20029;-71
2022/03/10 11:50:43;;;;;;;10.55;4.03;;;;;;;;;;5054104;28;20029;-78
2022/03/10 11:53:12;;;;;;;11.18;4.38;;;;;;;;;;5053998;28;20027;-76
2022/03/10 11:55:38;;;;;;;9.18;3.85;;;;;;;;;;5053913;28;20052;-76
2022/03/10 11:58:05;;;;;;;11.82;3.90;;;;;;;;;;5053920;28;20022;-70
2022/03/10 12:00:43;;;;;;;7.60;3.72;;;;;;;;;;5054161;28;20021;-64
2022/03/10 12:03:10;;;;;;;8.10;3.72;;;;;;;;;;5053774;28;20032;-67
2022/03/10 12:05:55;;;;;;;9.20;3.40;;;;;;;;;;5053776;28;20086;-70
2022/03/10 12:08:23;;;;;;;10.23;3.45;;;;;;;;;;5053858;28;20394;-71
2022/03/10 12:10:49;;;;;;;9.70;3.05;;;;;;;;;;5053683;28;20163;-63
2022/03/10 12:13:21;;;;;;;7.85;3.95;;;;;;;;;;5053683;28;20032;-63
2022/03/10 12:15:48;;;;;;;9.57;3.42;;;;;;;;;;5053898;28;20496;-62
2022/03/10 12:18:15;;;;;;;8.57;4.07;;;;;;;;;;5053786;28;20090;-67
2022/03/10 12:20:43;;;;;;;11.02;3.38;;;;;;;;;;5053523;28;20025;-72
2022/03/10 12:23:12;;;;;;;8.35;2.80;;;;;;;;;;5053242;28;20074;-66
2022/03/10 12:25:43;;;;;;;7.03;3.03;;;;;;;;;;5041279;28;20021;-66
2022/03/10 12:28:10;;;;;;;6.38;3.05;;;;;;;;;;5052927;28;20488;-73
2022/03/10 12:30:46;;;;;;;8.73;2.80;;;;;;;;;;5052802;28;20028;-60
2022/03/10 12:33:12;;;;;;;6.80;3.10;;;;;;;;;;5053115;28;20025;-69
2022/03/10 12:35:40;;;;;;;9.27;3.38;;;;;;;;;;5053109;28;20052;-61
2022/03/10 12:38:07;;;;;;;7.30;3.25;;;;;;;;;;5052885;28;20048;-70
2022/03/10 12:40:34;;;;;;;6.60;2.85;;;;;;;;;;5052621;28;20091;-72
2022/03/10 12:43:04;;;;;;;6.50;2.85;;;;;;;;;;5052640;28;20554;-72
2022/03/10 12:45:31;;;;;;;6.30;3.10;;;;;;;;;;5052775;28;20076;-70
2022/03/10 12:48:05;;;;;;;7.57;3.22;;;;;;;;;;5051771;28;20500;-67
2022/03/10 12:50:33;;;;;;;10.10;3.75;;;;;;;;;;5051073;28;20037;-64
2022/03/10 12:52:59;;;;;;;9.13;2.80;;;;;;;;;;5048371;28;20072;-65
2022/03/10 12:55:26;;;;;;;7.18;3.13;;;;;;;;;;5039336;28;20132;-65
2022/03/10 12:58:01;;;;;;;5.35;2.80;;;;;;;;;;5048861;28;20028;-65
2022/03/10 13:00:27;;;;;;;9.35;2.88;;;;;;;;;;5051386;28;20025;-73
2022/03/10 13:02:57;;;;;;;8.05;2.45;;;;;;;;;;5051858;28;20052;-65
2022/03/10 13:05:23;;;;;;;7.55;2.70;;;;;;;;;;5051759;28;20388;-71
2022/03/10 13:07:49;;;;;;;5.03;2.13;;;;;;;;;;5051177;28;20029;-70
2022/03/10 13:10:16;;;;;;;8.30;2.50;;;;;;;;;;5051211;28;20143;-69
2022/03/10 13:12:45;;;;;;;6.40;2.47;;;;;;;;;;5051510;28;20053;-71
2022/03/10 13:15:17;;;;;;;6.20;2.40;;;;;;;;;;5051032;28;20070;-66
2022/03/10 13:17:44;;;;;;;6.35;2.55;;;;;;;;;;5051218;28;20025;-71
2022/03/10 13:20:13;;;;;;;7.25;2.95;;;;;;;;;;5036185;28;20829;-67
2022/03/10 13:22:48;;;;;;;4.97;2.40;;;;;;;;;;5031494;28;20485;-69
2022/03/10 13:25:19;;;;;;;6.80;2.03;;;;;;;;;;5045263;28;20025;-68
2022/03/10 13:27:46;;;;;;;6.50;2.15;;;;;;;;;;5051161;28;20017;-70
2022/03/10 13:30:25;;;;;;;4.85;1.98;;;;;;;;;;5051046;28;20075;-69
2022/03/10 13:32:53;;;;;;;4.75;2.00;;;;;;;;;;5031220;28;20036;-71
2022/03/10 13:35:23;;;;;;;5.22;2.47;;;;;;;;;;5044026;28;20083;-72
2022/03/10 13:37:49;;;;;;;6.43;2.05;;;;;;;;;;5051098;28;20025;-67
2022/03/10 13:40:15;;;;;;;4.57;2.00;;;;;;;;;;5051168;28;20060;-73
2022/03/10 13:42:45;;;;;;;6.43;2.45;;;;;;;;;;5050953;28;20028;-73
2022/03/10 13:45:12;;;;;;;4.68;2.17;;;;;;;;;;5050812;28;20024;-71
2022/03/10 13:47:48;;;;;;;4.13;2.00;;;;;;;;;;5049472;28;20033;-72
2022/03/10 13:50:19;;;;;;;5.30;2.38;;;;;;;;;;5050923;28;20025;-71
2022/03/10 13:52:45;;;;;;;6.57;2.35;;;;;;;;;;5050785;28;20029;-69
2022/03/10 13:55:11;;;;;;;5.95;2.35;;;;;;;;;;5050896;28;20107;-66
2022/03/10 13:57:37;;;;;;;4.22;2.10;;;;;;;;;;5050675;28;20052;-72
2022/03/10 14:00:05;;;;;;;5.47;2.15;;;;;;;;;;5050656;28;20029;-72
2022/03/10 14:02:31;;;;;;;4.43;2.22;;;;;;;;;;5050648;28;20013;-62
2022/03/10 14:04:57;;;;;;;4.55;1.65;;;;;;;;;;5050015;28;20032;-68
2022/03/10 14:07:24;;;;;;;3.75;1.88;;;;;;;;;;5049882;28;20040;-69
2022/03/10 14:09:53;;;;;;;4.75;2.33;;;;;;;;;;5050216;28;20098;-65
2022/03/10 14:12:22;;;;;;;6.10;2.67;;;;;;;;;;5049945;28;20120;-69
2022/03/10 14:14:49;;;;;;;6.45;2.58;;;;;;;;;;5051678;28;20021;-69
2022/03/10 14:17:16;;;;;;;5.13;2.08;;;;;;;;;;5051650;28;20082;-69
2022/03/10 14:19:42;;;;;;;4.20;2.00;;;;;;;;;;5040243;28;20080;-68
2022/03/10 14:22:21;;;;;;;6.90;2.30;;;;;;;;;;5031575;28;20026;-69
2022/03/10 14:24:55;;;;;;;4.18;1.77;;;;;;;;;;5031766;28;20033;-67
2022/03/10 14:27:22;;;;;;;5.18;2.22;;;;;;;;;;5031528;28;20013;-69
2022/03/10 14:29:56;;;;;;;4.00;1.73;;;;;;;;;;5031744;28;20021;-68
2022/03/10 14:32:22;;;;;;;3.95;1.90;;;;;;;;;;5031296;28;20576;-60
2022/03/10 14:34:48;;;;;;;4.38;2.13;;;;;;;;;;5031840;28;20033;-61
2022/03/10 14:37:15;;;;;;;4.57;2.17;;;;;;;;;;5031495;28;20496;-64
2022/03/10 14:39:41;;;;;;;4.85;2.38;;;;;;;;;;5029904;28;20485;-60
2022/03/10 14:42:08;;;;;;;3.53;1.67;;;;;;;;;;5031243;28;20105;-63
2022/03/10 14:44:34;;;;;;;5.05;1.90;;;;;;;;;;5031229;28;20503;-60
2022/03/10 14:47:00;;;;;;;5.45;2.08;;;;;;;;;;5029906;28;20029;-60
2022/03/10 14:49:26;;;;;;;4.38;1.90;;;;;;;;;;5031239;28;20067;-61
2022/03/10 14:51:53;;;;;;;6.47;1.85;;;;;;;;;;5031211;28;20084;-60
2022/03/10 14:54:20;;;;;;;5.75;2.03;;;;;;;;;;5029779;28;20046;-62
2022/03/10 14:56:46;;;;;;;5.30;2.40;;;;;;;;;;5041491;28;20476;-61
2022/03/10 14:59:13;;;;;;;4.57;1.90;;;;;;;;;;5049720;28;20143;-68
2022/03/10 15:01:39;;;;;;;4.18;2.00;;;;;;;;;;5051008;28;20021;-66